Map

Track Data

SID SEASON NUMBER BASIN SUBBASIN NAME ISO_TIME NATURE LAT LON WMO_WIND WMO_PRES WMO_AGENCY TRACK_TYPE DIST2LAND LANDFALL IFLAG USA_AGENCY USA_ATCF_ID USA_LAT USA_LON USA_RECORD USA_STATUS USA_WIND USA_PRES USA_SSHS USA_R34_NE USA_R34_SE USA_R34_SW USA_R34_NW USA_R50_NE USA_R50_SE USA_R50_SW USA_R50_NW USA_R64_NE USA_R64_SE USA_R64_SW USA_R64_NW USA_POCI USA_ROCI USA_RMW USA_EYE TOKYO_LAT TOKYO_LON TOKYO_GRADE TOKYO_WIND TOKYO_PRES TOKYO_R50_DIR TOKYO_R50_LONG TOKYO_R50_SHORT TOKYO_R30_DIR TOKYO_R30_LONG TOKYO_R30_SHORT TOKYO_LAND CMA_LAT CMA_LON CMA_CAT CMA_WIND CMA_PRES HKO_LAT HKO_LON HKO_CAT HKO_WIND HKO_PRES NEWDELHI_LAT NEWDELHI_LON NEWDELHI_GRADE NEWDELHI_WIND NEWDELHI_PRES NEWDELHI_CI NEWDELHI_DP NEWDELHI_POCI REUNION_LAT REUNION_LON REUNION_TYPE REUNION_WIND REUNION_PRES REUNION_TNUM REUNION_CI REUNION_RMW REUNION_R34_NE REUNION_R34_SE REUNION_R34_SW REUNION_R34_NW REUNION_R50_NE REUNION_R50_SE REUNION_R50_SW REUNION_R50_NW REUNION_R64_NE REUNION_R64_SE REUNION_R64_SW REUNION_R64_NW BOM_LAT BOM_LON BOM_TYPE BOM_WIND BOM_PRES BOM_TNUM BOM_CI BOM_RMW BOM_R34_NE BOM_R34_SE BOM_R34_SW BOM_R34_NW BOM_R50_NE BOM_R50_SE BOM_R50_SW BOM_R50_NW BOM_R64_NE BOM_R64_SE BOM_R64_SW BOM_R64_NW BOM_ROCI BOM_POCI BOM_EYE BOM_POS_METHOD BOM_PRES_METHOD NADI_LAT NADI_LON NADI_CAT NADI_WIND NADI_PRES WELLINGTON_LAT WELLINGTON_LON WELLINGTON_WIND WELLINGTON_PRES DS824_LAT DS824_LON DS824_STAGE DS824_WIND DS824_PRES TD9636_LAT TD9636_LON TD9636_STAGE TD9636_WIND TD9636_PRES TD9635_LAT TD9635_LON TD9635_WIND TD9635_PRES TD9635_ROCI NEUMANN_LAT NEUMANN_LON NEUMANN_CLASS NEUMANN_WIND NEUMANN_PRES MLC_LAT MLC_LON MLC_CLASS MLC_WIND MLC_PRES USA_GUST BOM_GUST BOM_GUST_PER REUNION_GUST REUNION_GUST_PER USA_SEAHGT USA_SEARAD_NE USA_SEARAD_SE USA_SEARAD_SW USA_SEARAD_NW STORM_SPEED STORM_DIR
1979300N06095 1979 105 NI BB NOT_NAMED 1979-10-27 00:00:00 TS 5.90000 94.5000 main 84 84 O________OO___ jtwc_io IO061979 5.90000 94.5000 -1 5.90000 94.5000 TC 5.90000 94.5000 1 7 2
1979300N06095 1979 105 NI BB NOT_NAMED 1979-10-27 03:00:00 TS 6.24700 94.5005 main 102 102 P________PP___ IO061979 6.24000 94.5125 -1 6.24000 94.5125 TC 6.26100 94.4767 1 7 0
1979300N06095 1979 105 NI BB NOT_NAMED 1979-10-27 06:00:00 TS 6.60920 94.4842 main 136 136 O________OP___ jtwc_io IO061979 6.60000 94.5000 -1 6.60000 94.5000 TC 6.62761 94.4527 1 8 356
1979300N06095 1979 105 NI BB NOT_NAMED 1979-10-27 09:00:00 TS 6.99680 94.4425 main 180 180 P________PP___ IO061979 6.99250 94.4500 -1 6.99250 94.4500 TC 7.00540 94.4273 1 8 355
1979300N06095 1979 105 NI BB NOT_NAMED 1979-10-27 12:00:00 TS 7.40000 94.4000 main 220 220 O________OO___ jtwc_io IO061979 7.40000 94.4000 -1 7.40000 94.4000 TC 7.40000 94.4000 1 8 357
1979300N06095 1979 105 NI BB NOT_NAMED 1979-10-27 15:00:00 TS 7.80432 94.4036 main 261 261 P________PP___ IO061979 7.79998 94.4224 -1 7.79998 94.4224 TC 7.81298 94.3661 1 8 357
1979300N06095 1979 105 NI BB NOT_NAMED 1979-10-27 18:00:00 TS 8.20992 94.3682 main 304 304 O________OP___ jtwc_io IO061979 8.20000 94.4000 -1 8.20000 94.4000 TC 8.22975 94.3047 1 8 348
1979300N06095 1979 105 NI BB NOT_NAMED 1979-10-27 21:00:00 TS 8.62053 94.2320 main 353 353 P________PP___ IO061979 8.61497 94.2525 -1 8.61497 94.2525 TC 8.63165 94.1910 1 9 335
1979300N06095 1979 105 NI BB NOT_NAMED 1979-10-28 00:00:00 TS 9.00000 94.0000 main 403 403 O________OO___ jtwc_io IO061979 9.00000 94.0000 -1 9.00000 94.0000 TC 9.00000 94.0000 1 9 323
1979300N06095 1979 105 NI BB NOT_NAMED 1979-10-28 03:00:00 TS 9.32140 93.6880 main 446 446 P________PP___ IO061979 9.32250 93.6800 -1 9.32250 93.6800 TC 9.31921 93.7042 1 9 311
1979300N06095 1979 105 NI BB NOT_NAMED 1979-10-28 06:00:00 TS 9.60090 93.3109 main 494 494 O________OP___ jtwc_io IO061979 9.60000 93.3000 -1 9.60000 93.3000 TC 9.60270 93.3326 1 9 305
1979300N06095 1979 105 NI BB NOT_NAMED 1979-10-28 09:00:00 TS 9.86327 92.9066 main 544 544 P________PP___ IO061979 9.86500 92.9000 -1 9.86500 92.9000 TC 9.85982 92.9197 1 9 302
1979300N06095 1979 105 NI BB NOT_NAMED 1979-10-28 12:00:00 TS 10.1000 92.5000 main 585 585 O________OO___ jtwc_io IO061979 10.1000 92.5000 -1 10.1000 92.5000 TC 10.1000 92.5000 1 9 301
1979300N06095 1979 105 NI BB NOT_NAMED 1979-10-28 15:00:00 TS 10.3131 92.1361 main 627 627 P________PP___ IO061979 10.2999 92.1499 -1 10.2999 92.1499 TC 10.3394 92.1086 1 8 300
1979300N06095 1979 105 NI BB NOT_NAMED 1979-10-28 18:00:00 TS 10.5217 91.7733 main 656 646 O________OP___ jtwc_io IO061979 10.5000 91.8000 -1 10.5000 91.8000 TC 10.5650 91.7198 1 9 301
1979300N06095 1979 105 NI BB NOT_NAMED 1979-10-28 21:00:00 TS 10.7611 91.3771 main 647 645 P________PP___ IO061979 10.7500 91.3925 -1 10.7500 91.3925 TC 10.7831 91.3461 1 9 302
1979300N06095 1979 105 NI BB NOT_NAMED 1979-10-29 00:00:00 TS 11.0000 91.0000 main 651 645 O________OO___ jtwc_io IO061979 11.0000 91.0000 XX 20 -5 11.0000 91.0000 TC 20 11.0000 91.0000 1 8 304
1979300N06095 1979 105 NI BB NOT_NAMED 1979-10-29 03:00:00 TS 11.2163 90.6823 main 652 648 P________PP___ IO061979 11.1999 90.6774 XX 20 -5 11.1999 90.6774 TC 20 11.2492 90.6922 1 7 306
1979300N06095 1979 105 NI BB NOT_NAMED 1979-10-29 06:00:00 TS 11.4316 90.4042 main 655 645 O________OP___ jtwc_io IO061979 11.4000 90.4000 XX 20 -5 11.4000 90.4000 TC 20 11.4947 90.4125 1 7 312
1979300N06095 1979 105 NI BB NOT_NAMED 1979-10-29 09:00:00 TS 11.6826 90.1455 main 653 645 P________PP___ IO061979 11.6650 90.1425 XX 20 -5 11.6650 90.1425 TC 20 11.7180 90.1516 1 7 313
1979300N06095 1979 105 NI BB NOT_NAMED 1979-10-29 12:00:00 TS 11.9000 89.9000 main 652 652 O________OO___ jtwc_io IO061979 11.9000 89.9000 XX 20 -5 11.9000 89.9000 TC 20 11.9000 89.9000 1 6 305
1979300N06095 1979 105 NI BB NOT_NAMED 1979-10-29 15:00:00 TS 12.0205 89.6609 main 660 660 P________PP___ IO061979 12.0300 89.6499 XX 22 -5 12.0300 89.6499 TC 22 12.0014 89.6829 1 5 292
1979300N06095 1979 105 NI BB NOT_NAMED 1979-10-29 18:00:00 TS 12.0881 89.4222 main 677 677 O________OP___ jtwc_io IO061979 12.1000 89.4000 XX 25 -5 12.1000 89.4000 TC 25 12.0643 89.4667 1 5 284
1979300N06095 1979 105 NI BB NOT_NAMED 1979-10-29 21:00:00 TS 12.1349 89.1923 main 694 694 P________PP___ IO061979 12.1424 89.1799 XX 25 -5 12.1424 89.1799 TC 25 12.1201 89.2172 1 5 282
1979300N06095 1979 105 NI BB NOT_NAMED 1979-10-30 00:00:00 TS 12.2000 88.9000 main 712 712 O________OO___ jtwc_io IO061979 12.2000 88.9000 XX 25 -5 12.2000 88.9000 TC 25 12.2000 88.9000 1 7 286
1979300N06095 1979 105 NI BB NOT_NAMED 1979-10-30 03:00:00 TS 12.3352 88.4846 main 741 741 P________PP___ IO061979 12.3275 88.4950 XX 25 -5 12.3275 88.4950 TC 25 12.3507 88.4640 1 9 289
1979300N06095 1979 105 NI BB NOT_NAMED 1979-10-30 06:00:00 TS 12.5093 87.9868 main 766 709 O________OP___ jtwc_io IO061979 12.5000 88.0000 XX 25 -5 12.5000 88.0000 TC 25 12.5280 87.9603 1 11 290
1979300N06095 1979 105 NI BB NOT_NAMED 1979-10-30 09:00:00 TS 12.7005 87.4422 main 701 645 P________PP___ IO061979 12.6926 87.4500 XX 25 -5 12.6926 87.4500 TC 25 12.7162 87.4264 1 11 290
1979300N06095 1979 105 NI BB NOT_NAMED 1979-10-30 12:00:00 TS 12.9000 86.9000 main 645 597 O________OO___ jtwc_io IO061979 12.9000 86.9000 XX 25 -5 12.9000 86.9000 TC 25 12.9000 86.9000 1 11 293
1979300N06095 1979 105 NI BB NOT_NAMED 1979-10-30 15:00:00 TS 13.1103 86.4394 main 589 542 P________PP___ IO061979 13.1148 86.4350 XX 27 -5 13.1148 86.4350 TC 27 13.1013 86.4481 1 10 294
1979300N06095 1979 105 NI BB NOT_NAMED 1979-10-30 18:00:00 TS 13.2964 86.0027 main 542 503 O________OP___ jtwc_io IO061979 13.3000 86.0000 XX 30 -5 13.3000 86.0000 TC 30 13.2893 86.0081 1 9 291
1979300N06095 1979 105 NI BB NOT_NAMED 1979-10-30 21:00:00 TS 13.4408 85.5597 main 503 459 P________PP___ IO061979 13.4449 85.5575 XX 30 -5 13.4449 85.5575 TC 30 13.4326 85.5639 1 9 283
1979300N06095 1979 105 NI BB NOT_NAMED 1979-10-31 00:00:00 TS 13.5000 85.1000 main 459 432 O________OO___ jtwc_io IO061979 13.5000 85.1000 XX 30 -5 13.5000 85.1000 TC 30 13.5000 85.1000 1 9 270
1979300N06095 1979 105 NI BB NOT_NAMED 1979-10-31 03:00:00 TS 13.4429 84.6072 main 435 411 P________PP___ IO061979 13.4374 84.6149 XX 30 -5 13.4374 84.6149 TC 30 13.4540 84.5918 1 10 259
1979300N06095 1979 105 NI BB NOT_NAMED 1979-10-31 06:00:00 TS 13.3108 84.0880 main 411 357 O________OP___ jtwc_io IO061979 13.3000 84.1000 XX 30 -5 13.3000 84.1000 TC 30 13.3324 84.0641 1 11 255
1979300N06095 1979 105 NI BB NOT_NAMED 1979-10-31 09:00:00 TS 13.1565 83.5431 main 346 294 P________PP___ IO061979 13.1500 83.5499 XX 32 -5 13.1500 83.5499 TC 32 13.1696 83.5294 1 11 254
1979300N06095 1979 105 NI BB NOT_NAMED 1979-10-31 12:00:00 TS 13.0000 83.0000 main 294 242 O________OO___ jtwc_io IO061979 13.0000 83.0000 XX 35 -5 13.0000 83.0000 TC 35 13.0000 83.0000 1 11 255
1979300N06095 1979 105 NI BB NOT_NAMED 1979-10-31 15:00:00 TS 12.8848 82.4805 main 242 192 P________PP___ IO061979 12.8999 82.4926 XX 35 -5 12.8999 82.4926 TC 35 12.8548 82.4562 1 10 257
1979300N06095 1979 105 NI BB NOT_NAMED 1979-10-31 18:00:00 TS 12.7709 81.9749 main 192 141 O________OP___ jtwc_io IO061979 12.8000 82.0000 XX 35 -5 12.8000 82.0000 TC 35 12.7127 81.9248 1 10 255
1979300N06095 1979 105 NI BB NOT_NAMED 1979-10-31 21:00:00 TS 12.6248 81.4620 main 141 86 P________PP___ IO061979 12.6425 81.4774 XX 32 -5 12.6425 81.4774 TC 32 12.5892 81.4311 1 10 254
1979300N06095 1979 105 NI BB NOT_NAMED 1979-11-01 00:00:00 TS 12.5000 81.0000 main 86 44 O________OO___ jtwc_io IO061979 12.5000 81.0000 XX 30 -5 12.5000 81.0000 TC 30 12.5000 81.0000 1 8 257
1979300N06095 1979 105 NI BB NOT_NAMED 1979-11-01 03:00:00 TS 12.4320 80.6196 main 44 15 P________PP___ IO061979 12.4199 80.6051 XX 25 -5 12.4199 80.6051 TC 25 12.4561 80.6486 1 7 263
1979300N06095 1979 105 NI BB NOT_NAMED 1979-11-01 06:00:00 TS 12.4166 80.3209 main 15 0 O________OP___ jtwc_io IO061979 12.4000 80.3000 XX 20 -5 12.4000 80.3000 TC 20 12.4498 80.3628 1 5 272
1979300N06095 1979 105 NI BB NOT_NAMED 1979-11-01 09:00:00 TS 12.4462 80.0919 main 0 0 P________PP___ IO061979 12.4350 80.0775 XX 17 -5 12.4350 80.0775 TC 17 12.4686 80.1205 1 4 281
1979300N06095 1979 105 NI BB NOT_NAMED 1979-11-01 12:00:00 TS 12.5000 79.9000 main 0 O________OO___ jtwc_io IO061979 12.5000 79.9000 XX 15 -5 12.5000 79.9000 TC 15 12.5000 79.9000 1 4 286

About IBTrACS Database

This database is a web-friendly format of International Best Track Archive for Climate Stewardship (IBTrACS), a global best track data archive curated by NOAA dating back to 1842.

Updated: 2021-10-25